createdAt,value
2019-05-28T00:00:16.483Z,14.10
2019-05-28T00:02:45.930Z,16.73
2019-05-28T00:05:16.383Z,22.05
2019-05-28T00:07:45.669Z,20.95
2019-05-28T00:10:15.346Z,12.63
2019-05-28T00:12:44.851Z,11.22
2019-05-28T00:15:15.444Z,9.40
2019-05-28T00:17:44.751Z,7.60
2019-05-28T00:20:14.482Z,8.08
2019-05-28T00:22:43.777Z,9.73
2019-05-28T00:25:13.256Z,5.90
2019-05-28T00:27:42.632Z,10.35
2019-05-28T00:30:19.639Z,6.85
2019-05-28T00:32:43.203Z,8.28
2019-05-28T00:35:13.855Z,12.50
2019-05-28T00:37:43.136Z,10.48
2019-05-28T00:40:12.886Z,9.40
2019-05-28T00:42:42.377Z,12.45
2019-05-28T00:45:12.163Z,12.55
2019-05-28T00:47:41.479Z,11.60
2019-05-28T00:50:11.412Z,17.80
2019-05-28T00:52:41.366Z,16.42
2019-05-28T00:55:12.669Z,12.73
2019-05-28T00:57:44.732Z,15.72
2019-05-28T01:00:14.553Z,18.57
2019-05-28T01:02:44.040Z,16.17
2019-05-28T01:05:13.716Z,19.15
2019-05-28T01:07:43.014Z,20.35
2019-05-28T01:10:12.461Z,21.12
2019-05-28T01:12:41.784Z,29.23
2019-05-28T01:15:11.256Z,25.43
2019-05-28T01:17:40.727Z,32.25
2019-05-28T01:20:10.177Z,37.75
2019-05-28T01:22:39.665Z,39.15
2019-05-28T01:25:09.580Z,44.08
2019-05-28T01:27:39.117Z,45.40
2019-05-28T01:30:08.578Z,40.58
2019-05-28T01:32:37.903Z,36.63
2019-05-28T01:35:07.725Z,44.55
2019-05-28T01:37:38.058Z,45.03
2019-05-28T01:40:07.758Z,42.25
2019-05-28T01:42:37.153Z,46.08
2019-05-28T01:45:07.461Z,47.00
2019-05-28T01:47:36.944Z,44.95
2019-05-28T01:50:10.090Z,45.33
2019-05-28T01:52:39.550Z,49.53
2019-05-28T01:55:09.474Z,55.60
2019-05-28T01:57:38.795Z,48.38
2019-05-28T02:00:09.024Z,41.95
2019-05-28T02:02:40.598Z,48.10
2019-05-28T02:05:10.449Z,48.02
2019-05-28T02:07:39.752Z,45.05
2019-05-28T02:10:09.597Z,51.63
2019-05-28T02:12:39.922Z,47.70
2019-05-28T02:15:10.348Z,48.78
2019-05-28T02:17:39.672Z,48.15
2019-05-28T02:20:10.306Z,42.58
2019-05-28T02:22:39.701Z,48.40
2019-05-28T02:25:09.656Z,47.95
2019-05-28T02:27:39.021Z,53.15
2019-05-28T02:30:10.337Z,49.67
2019-05-28T02:32:39.694Z,53.33
2019-05-28T02:35:09.923Z,44.53
2019-05-28T02:37:39.234Z,48.30
2019-05-28T02:40:08.914Z,47.60
2019-05-28T02:42:38.283Z,50.52
2019-05-28T02:45:11.433Z,52.67
2019-05-28T02:47:40.743Z,47.95
2019-05-28T02:50:10.698Z,39.75
2019-05-28T02:52:40.277Z,42.53
2019-05-28T02:55:10.335Z,37.50
2019-05-28T02:57:41.411Z,41.83
2019-05-28T03:00:15.553Z,39.70
2019-05-28T03:02:48.165Z,39.58
2019-05-28T03:05:18.029Z,34.23
2019-05-28T03:07:49.253Z,40.95
2019-05-28T03:10:24.474Z,40.48
2019-05-28T03:12:53.791Z,36.98
2019-05-28T03:15:23.099Z,32.85
2019-05-28T03:17:52.485Z,37.33
2019-05-28T03:20:21.974Z,31.05
2019-05-28T03:22:52.172Z,36.93
2019-05-28T03:25:22.811Z,39.00
2019-05-28T03:27:52.086Z,30.68
2019-05-28T03:30:21.542Z,34.60
2019-05-28T03:32:50.857Z,34.95
2019-05-28T03:35:20.187Z,30.70
2019-05-28T03:37:49.634Z,36.53
2019-05-28T03:40:29.750Z,33.60
2019-05-28T03:42:59.076Z,40.52
2019-05-28T03:45:28.364Z,37.45
2019-05-28T03:47:57.677Z,42.80
2019-05-28T03:50:27.330Z,26.73
2019-05-28T03:52:56.883Z,18.77
2019-05-28T03:55:26.269Z,19.80
2019-05-28T03:57:55.633Z,19.42
2019-05-28T04:00:26.434Z,21.23
2019-05-28T04:02:55.741Z,19.30
2019-05-28T04:05:25.211Z,20.80
2019-05-28T04:07:54.529Z,21.00
2019-05-28T04:10:23.846Z,22.17
2019-05-28T04:12:53.161Z,20.95
2019-05-28T04:15:22.474Z,20.32
2019-05-28T04:17:51.964Z,21.20
2019-05-28T04:20:21.277Z,20.52
2019-05-28T04:22:51.781Z,21.82
2019-05-28T04:25:22.545Z,26.15
2019-05-28T04:27:51.856Z,23.32
2019-05-28T04:30:21.172Z,23.00
2019-05-28T04:32:50.485Z,23.32
2019-05-28T04:35:19.784Z,22.90
2019-05-28T04:37:49.095Z,22.48
2019-05-28T04:40:18.482Z,21.37
2019-05-28T04:42:47.789Z,24.92
2019-05-28T04:45:17.156Z,26.52
2019-05-28T04:47:46.453Z,25.17
2019-05-28T04:50:15.829Z,28.12
2019-05-28T04:52:45.134Z,30.02
2019-05-28T04:55:14.769Z,35.30
2019-05-28T04:57:44.076Z,26.87
2019-05-28T05:00:14.024Z,31.00
2019-05-28T05:02:57.711Z,28.60
2019-05-28T05:05:14.677Z,30.50
2019-05-28T05:07:43.988Z,32.00
2019-05-28T05:10:14.356Z,30.17
2019-05-28T05:12:43.868Z,29.27
2019-05-28T05:15:13.381Z,20.92
2019-05-28T05:17:42.694Z,24.82
2019-05-28T05:20:14.735Z,21.65
2019-05-28T05:22:47.182Z,22.27
2019-05-28T05:25:18.129Z,24.67
2019-05-28T05:27:47.670Z,25.35
2019-05-28T05:30:17.019Z,27.42
2019-05-28T05:32:46.325Z,21.73
2019-05-28T05:35:16.246Z,27.62
2019-05-28T05:37:45.552Z,28.57
2019-05-28T05:40:15.579Z,31.07
2019-05-28T05:42:45.088Z,30.05
2019-05-28T05:45:14.449Z,28.15
2019-05-28T05:47:46.109Z,29.45
2019-05-28T05:50:16.472Z,27.40
2019-05-28T05:52:46.423Z,26.70
2019-05-28T05:55:15.876Z,22.37
2019-05-28T05:57:46.267Z,22.25
2019-05-28T06:00:17.677Z,29.92
2019-05-28T06:02:46.989Z,23.62
2019-05-28T06:05:16.716Z,20.23
2019-05-28T06:07:46.041Z,18.42
2019-05-28T06:10:16.566Z,13.93
2019-05-28T06:12:45.880Z,14.95
2019-05-28T06:15:15.240Z,22.70
2019-05-28T06:17:44.530Z,15.58
2019-05-28T06:20:14.437Z,12.45
2019-05-28T06:22:43.909Z,12.70
2019-05-28T06:25:13.427Z,15.28
2019-05-28T06:27:44.359Z,16.30
2019-05-28T06:30:13.979Z,14.55
2019-05-28T06:32:43.344Z,16.67
2019-05-28T06:35:12.954Z,16.62
2019-05-28T06:37:42.308Z,12.33
2019-05-28T06:40:11.778Z,12.00
2019-05-28T06:42:41.054Z,13.88
2019-05-28T06:45:10.569Z,14.65
2019-05-28T06:47:44.833Z,11.43
2019-05-28T06:50:12.630Z,16.40
2019-05-28T06:52:42.085Z,13.62
2019-05-28T06:55:11.604Z,13.45
2019-05-28T06:57:42.002Z,14.73
2019-05-28T07:00:11.834Z,14.65
2019-05-28T07:02:41.116Z,14.28
2019-05-28T07:05:10.485Z,13.90
2019-05-28T07:07:39.786Z,15.90
2019-05-28T07:10:09.318Z,19.90
2019-05-28T07:12:38.677Z,12.10
2019-05-28T07:15:08.935Z,10.38
2019-05-28T07:17:38.246Z,13.08
2019-05-28T07:20:08.391Z,14.68
2019-05-28T07:22:37.704Z,17.30
2019-05-28T07:25:08.067Z,15.93
2019-05-28T07:27:40.066Z,9.98
2019-05-28T07:30:09.798Z,8.28
2019-05-28T07:32:39.112Z,10.23
2019-05-28T07:35:08.460Z,10.80
2019-05-28T07:37:37.793Z,7.95
2019-05-28T07:40:07.371Z,5.78
2019-05-28T07:42:36.675Z,6.60
2019-05-28T07:45:07.166Z,5.12
2019-05-28T07:47:37.553Z,3.55
2019-05-28T07:50:07.265Z,3.15
2019-05-28T07:52:36.601Z,2.90
2019-05-28T07:55:06.239Z,2.58
2019-05-28T07:57:35.656Z,3.65
2019-05-28T08:00:07.007Z,2.90
2019-05-28T08:02:36.360Z,3.77
2019-05-28T08:05:07.183Z,3.72
2019-05-28T08:07:36.693Z,2.92
2019-05-28T08:10:08.406Z,2.40
2019-05-28T08:12:37.740Z,2.52
2019-05-28T08:15:08.764Z,2.55
2019-05-28T08:17:38.074Z,2.85
2019-05-28T08:20:07.883Z,3.52
2019-05-28T08:22:42.704Z,4.80
2019-05-28T08:25:23.547Z,5.53
2019-05-28T08:27:39.462Z,5.37
2019-05-28T08:30:09.129Z,9.83
2019-05-28T08:32:38.432Z,7.83
2019-05-28T08:35:08.351Z,5.90
2019-05-28T08:37:37.730Z,9.95
2019-05-28T08:40:08.210Z,8.15
2019-05-28T08:42:37.756Z,9.05
2019-05-28T08:45:08.451Z,6.20
2019-05-28T08:47:37.804Z,6.17
2019-05-28T08:50:08.078Z,7.42
2019-05-28T08:52:37.384Z,6.28
2019-05-28T08:55:07.177Z,5.80
2019-05-28T08:57:36.700Z,2.30
2019-05-28T09:00:10.488Z,3.45
2019-05-28T09:02:39.779Z,3.83
2019-05-28T09:05:25.033Z,3.92
2019-05-28T09:07:40.343Z,4.33
2019-05-28T09:10:10.499Z,2.42
2019-05-28T09:12:39.787Z,3.22
2019-05-28T09:15:09.232Z,4.47
2019-05-28T09:17:40.493Z,3.92
2019-05-28T09:20:10.148Z,4.78
2019-05-28T09:22:39.452Z,5.53
2019-05-28T09:25:09.012Z,5.55
2019-05-28T09:27:38.295Z,7.33
2019-05-28T09:30:09.572Z,10.43
2019-05-28T09:32:38.981Z,8.65
2019-05-28T09:35:09.746Z,9.65
2019-05-28T09:37:40.010Z,8.25
2019-05-28T09:40:09.933Z,7.25
2019-05-28T09:42:39.278Z,11.00
2019-05-28T09:45:21.904Z,7.33
2019-05-28T09:47:40.717Z,7.30
2019-05-28T09:50:29.370Z,8.45
2019-05-28T09:52:54.487Z,7.90
2019-05-28T09:55:15.450Z,8.78
2019-05-28T09:57:47.820Z,9.00
2019-05-28T10:00:21.437Z,6.55
2019-05-28T10:02:51.995Z,5.72
2019-05-28T10:05:21.993Z,6.72
2019-05-28T10:07:51.285Z,7.03
2019-05-28T10:10:20.762Z,6.45
2019-05-28T10:12:50.309Z,4.37
2019-05-28T10:15:20.332Z,4.90
2019-05-28T10:17:49.672Z,6.75
2019-05-28T10:20:19.650Z,3.92
2019-05-28T10:22:49.092Z,2.83
2019-05-28T10:25:18.664Z,2.90
2019-05-28T10:28:00.469Z,2.87
2019-05-28T10:30:19.939Z,3.62
2019-05-28T10:32:49.227Z,4.90
2019-05-28T10:35:18.848Z,3.92
2019-05-28T10:37:48.271Z,3.22
2019-05-28T10:40:18.110Z,3.50
2019-05-28T10:42:47.441Z,4.50
2019-05-28T10:45:17.551Z,5.75
2019-05-28T10:47:46.876Z,4.55
2019-05-28T10:50:17.487Z,5.60
2019-05-28T10:52:46.926Z,5.12
2019-05-28T10:55:16.539Z,6.45
2019-05-28T10:57:45.819Z,8.30
2019-05-28T11:00:15.746Z,7.33
2019-05-28T11:02:45.054Z,8.68
2019-05-28T11:05:15.081Z,6.90
2019-05-28T11:07:44.358Z,6.42
2019-05-28T11:10:23.659Z,6.00
2019-05-28T11:12:45.490Z,4.75
2019-05-28T11:15:16.326Z,5.17
2019-05-28T11:17:45.623Z,6.17
2019-05-28T11:20:15.901Z,4.33
2019-05-28T11:22:45.182Z,6.78
2019-05-28T11:25:15.918Z,5.33
2019-05-28T11:27:45.245Z,5.12
2019-05-28T11:30:15.705Z,5.35
2019-05-28T11:32:46.738Z,4.65
2019-05-28T11:35:17.457Z,5.05
2019-05-28T11:37:47.658Z,4.60
2019-05-28T11:40:17.601Z,5.80
2019-05-28T11:42:46.911Z,5.25
2019-05-28T11:45:18.719Z,4.75
2019-05-28T11:47:50.868Z,5.62
2019-05-28T11:50:19.399Z,4.40
2019-05-28T11:52:49.444Z,6.15
2019-05-28T11:55:19.077Z,6.10
2019-05-28T11:57:48.376Z,6.28
2019-05-28T12:00:18.089Z,6.33
2019-05-28T12:02:47.400Z,7.78
2019-05-28T12:05:17.147Z,6.45
2019-05-28T12:07:46.432Z,7.20
2019-05-28T12:10:16.281Z,5.87
2019-05-28T12:12:45.564Z,6.65
2019-05-28T12:15:16.780Z,7.72
2019-05-28T12:17:46.359Z,11.95
2019-05-28T12:20:19.675Z,5.10
2019-05-28T12:23:08.851Z,5.60
2019-05-28T12:25:21.929Z,6.13
2019-05-28T12:27:51.223Z,6.80
2019-05-28T12:30:21.083Z,5.40
2019-05-28T12:32:50.443Z,6.47
2019-05-28T12:35:28.129Z,5.53
2019-05-28T12:37:51.585Z,4.70
2019-05-28T12:40:21.442Z,8.78
2019-05-28T12:42:50.811Z,4.87
2019-05-28T12:45:34.383Z,7.25
2019-05-28T12:48:07.484Z,6.67
2019-05-28T12:50:24.346Z,6.20
2019-05-28T12:52:53.639Z,4.72
2019-05-28T12:55:23.344Z,6.15
2019-05-28T12:57:52.676Z,6.30
2019-05-28T13:00:22.590Z,6.47
2019-05-28T13:02:51.862Z,5.95
2019-05-28T13:05:24.102Z,6.12
2019-05-28T13:08:07.652Z,3.37
2019-05-28T13:10:24.962Z,7.67
2019-05-28T13:12:54.278Z,4.42
2019-05-28T13:15:23.747Z,6.12
2019-05-28T13:17:53.241Z,4.03
2019-05-28T13:20:23.500Z,5.33
2019-05-28T13:22:52.996Z,5.58
2019-05-28T13:25:22.308Z,5.17
2019-05-28T13:27:51.571Z,6.08
2019-05-28T13:30:21.046Z,5.08
2019-05-28T13:32:50.565Z,5.10
2019-05-28T13:35:20.559Z,5.97
2019-05-28T13:37:50.976Z,5.37
2019-05-28T13:40:20.750Z,5.72
2019-05-28T13:42:51.856Z,5.90
2019-05-28T13:45:21.544Z,5.17
2019-05-28T13:47:50.887Z,4.37
2019-05-28T13:50:22.001Z,4.08
2019-05-28T13:52:51.454Z,5.47
2019-05-28T13:55:20.948Z,5.87
2019-05-28T13:57:50.256Z,5.03
2019-05-28T14:00:20.668Z,3.40
2019-05-28T14:02:49.961Z,4.45
2019-05-28T14:05:19.574Z,4.03
2019-05-28T14:07:48.877Z,4.95
2019-05-28T14:10:18.327Z,5.42
2019-05-28T14:12:47.693Z,4.03
2019-05-28T14:15:18.823Z,6.78
2019-05-28T14:17:48.149Z,4.72
2019-05-28T14:20:18.249Z,6.03
2019-05-28T14:22:47.487Z,5.35
2019-05-28T14:25:18.317Z,2.60
2019-05-28T14:27:47.625Z,4.50
2019-05-28T14:30:19.089Z,4.95
2019-05-28T14:32:48.568Z,3.85
2019-05-28T14:35:18.499Z,5.75
2019-05-28T14:37:48.518Z,5.80
2019-05-28T14:40:17.985Z,5.35
2019-05-28T14:42:47.279Z,5.33
2019-05-28T14:45:16.863Z,4.65
2019-05-28T14:47:46.222Z,4.85
2019-05-28T14:50:16.123Z,6.45
2019-05-28T14:52:45.431Z,6.40
2019-05-28T14:55:15.082Z,7.40
2019-05-28T14:57:44.443Z,8.28
2019-05-28T15:00:17.036Z,6.62
2019-05-28T15:02:47.930Z,5.75
2019-05-28T15:05:18.458Z,5.42
2019-05-28T15:07:47.789Z,6.75
2019-05-28T15:10:18.731Z,5.60
2019-05-28T15:12:48.128Z,6.70
2019-05-28T15:15:34.563Z,9.58
2019-05-28T15:17:48.779Z,8.13
2019-05-28T15:20:18.619Z,8.30
2019-05-28T15:22:48.166Z,10.32
2019-05-28T15:25:17.652Z,8.10
2019-05-28T15:27:46.964Z,7.03
2019-05-28T15:30:16.487Z,7.70
2019-05-28T15:32:45.765Z,6.87
2019-05-28T15:35:15.380Z,9.25
2019-05-28T15:37:44.651Z,5.65
2019-05-28T15:40:14.411Z,6.87
2019-05-28T15:42:43.686Z,7.50
2019-05-28T15:45:13.713Z,7.75
2019-05-28T15:47:44.933Z,11.88
2019-05-28T15:50:16.394Z,7.70
2019-05-28T15:52:45.685Z,9.95
2019-05-28T15:55:15.235Z,9.60
2019-05-28T15:57:44.517Z,8.23
2019-05-28T16:00:19.688Z,7.67
2019-05-28T16:02:49.120Z,10.00
2019-05-28T16:05:19.929Z,9.43
2019-05-28T16:07:49.302Z,10.40
2019-05-28T16:10:19.191Z,11.03
2019-05-28T16:12:49.436Z,10.85
2019-05-28T16:15:18.810Z,9.83
2019-05-28T16:17:48.114Z,7.75
2019-05-28T16:20:18.234Z,9.88
2019-05-28T16:22:47.577Z,10.68
2019-05-28T16:25:17.194Z,10.15
2019-05-28T16:27:47.357Z,11.08
2019-05-28T16:30:17.380Z,11.35
2019-05-28T16:32:46.692Z,10.28
2019-05-28T16:35:19.274Z,13.20
2019-05-28T16:40:18.777Z,11.05
2019-05-28T16:42:48.038Z,11.93
2019-05-28T16:45:17.706Z,10.58
2019-05-28T16:47:47.009Z,12.68
2019-05-28T16:50:16.612Z,10.28
2019-05-28T16:52:46.348Z,14.63
2019-05-28T16:55:16.697Z,8.15
2019-05-28T16:57:46.040Z,11.00
2019-05-28T17:00:15.839Z,10.32
2019-05-28T17:02:45.368Z,9.10
2019-05-28T17:05:14.718Z,9.78
2019-05-28T17:07:44.181Z,11.50
2019-05-28T17:10:31.608Z,6.55
2019-05-28T17:12:47.011Z,10.25
2019-05-28T17:15:16.639Z,8.53
2019-05-28T17:17:46.778Z,8.85
2019-05-28T17:20:16.445Z,9.90
2019-05-28T17:22:45.872Z,7.42
2019-05-28T17:25:15.919Z,8.08
2019-05-28T17:27:46.071Z,7.10
2019-05-28T17:30:23.303Z,9.80
2019-05-28T17:32:46.752Z,8.93
2019-05-28T17:35:16.078Z,11.60
2019-05-28T17:37:45.347Z,6.80
2019-05-28T17:40:21.637Z,7.75
2019-05-28T17:42:46.107Z,8.35
2019-05-28T17:45:17.252Z,9.03
2019-05-28T17:47:46.557Z,7.17
2019-05-28T17:50:17.813Z,5.83
2019-05-28T17:52:51.036Z,7.72
2019-05-28T17:55:18.209Z,8.03
2019-05-28T17:57:47.544Z,7.55
2019-05-28T18:00:16.983Z,6.45
2019-05-28T18:02:48.452Z,9.13
2019-05-28T18:05:17.513Z,6.45
2019-05-28T18:07:46.818Z,7.33
2019-05-28T18:10:16.331Z,6.85
2019-05-28T18:12:45.776Z,5.95
2019-05-28T18:15:15.406Z,4.33
2019-05-28T18:17:44.671Z,7.12
2019-05-28T18:20:15.121Z,6.15
2019-05-28T18:22:44.680Z,9.45
2019-05-28T18:25:14.142Z,6.50
2019-05-28T18:27:43.422Z,7.67
2019-05-28T18:30:13.062Z,8.33
2019-05-28T18:32:42.348Z,4.87
2019-05-28T18:35:12.512Z,8.70
2019-05-28T18:37:41.889Z,4.85
2019-05-28T18:40:12.282Z,6.40
2019-05-28T18:42:41.644Z,7.95
2019-05-28T18:45:11.251Z,4.30
2019-05-28T18:47:40.840Z,6.10
2019-05-28T18:50:11.198Z,4.90
2019-05-28T18:52:40.544Z,8.35
2019-05-28T18:55:10.126Z,6.42
2019-05-28T18:57:39.403Z,5.60
2019-05-28T19:00:09.845Z,4.37
2019-05-28T19:02:39.908Z,6.72
2019-05-28T19:05:10.931Z,6.17
2019-05-28T19:07:40.447Z,5.62
2019-05-28T19:10:09.813Z,4.80
2019-05-28T19:12:39.077Z,5.20
2019-05-28T19:15:09.041Z,6.22
2019-05-28T19:17:38.492Z,4.62
2019-05-28T19:20:08.466Z,4.92
2019-05-28T19:22:37.723Z,4.90
2019-05-28T19:25:09.071Z,5.00
2019-05-28T19:27:38.406Z,5.20
2019-05-28T19:30:09.671Z,4.85
2019-05-28T19:32:40.001Z,3.90
2019-05-28T19:35:09.540Z,3.60
2019-05-28T19:37:39.129Z,5.65
2019-05-28T19:40:08.611Z,4.53
2019-05-28T19:42:39.159Z,4.40
2019-05-28T19:45:08.892Z,3.95
2019-05-28T19:47:38.372Z,4.17
2019-05-28T19:50:08.434Z,4.50
2019-05-28T19:52:37.889Z,7.83
2019-05-28T19:55:07.611Z,5.25
2019-05-28T19:57:36.922Z,2.72
2019-05-28T20:00:07.525Z,3.22
2019-05-28T20:02:37.718Z,3.27
2019-05-28T20:05:08.499Z,2.98
2019-05-28T20:07:37.818Z,4.70
2019-05-28T20:10:08.147Z,9.65
2019-05-28T20:12:37.432Z,7.53
2019-05-28T20:15:11.566Z,4.37
2019-05-28T20:17:40.930Z,4.20
2019-05-28T20:20:11.095Z,5.37
2019-05-28T20:22:40.416Z,6.25
2019-05-28T20:25:11.277Z,2.85
2019-05-28T20:27:41.006Z,7.37
2019-05-28T20:30:11.525Z,4.83
2019-05-28T20:32:41.770Z,4.05
2019-05-28T20:35:11.768Z,2.83
2019-05-28T20:37:41.174Z,5.30
2019-05-28T20:40:11.056Z,6.00
2019-05-28T20:42:40.613Z,4.62
2019-05-28T20:45:11.886Z,5.80
2019-05-28T20:47:41.382Z,6.83
2019-05-28T20:50:11.748Z,5.28
2019-05-28T20:52:43.221Z,6.55
2019-05-28T20:55:13.037Z,3.47
2019-05-28T20:57:42.501Z,5.17
2019-05-28T21:00:12.205Z,5.10
2019-05-28T21:02:41.562Z,7.90
2019-05-28T21:05:11.100Z,6.65
2019-05-28T21:07:41.369Z,3.87
2019-05-28T21:10:12.158Z,4.67
2019-05-28T21:12:44.570Z,7.95
2019-05-28T21:15:15.872Z,3.67
2019-05-28T21:17:44.260Z,4.97
2019-05-28T21:20:13.595Z,6.28
2019-05-28T21:22:42.890Z,11.48
2019-05-28T21:25:12.241Z,3.55
2019-05-28T21:27:41.596Z,7.25
2019-05-28T21:30:11.180Z,6.83
2019-05-28T21:32:41.396Z,6.28
2019-05-28T21:35:11.097Z,4.75
2019-05-28T21:37:40.390Z,6.05
2019-05-28T21:40:09.892Z,5.55
2019-05-28T21:42:39.163Z,5.37
2019-05-28T21:45:08.785Z,6.53
2019-05-28T21:47:39.747Z,7.08
2019-05-28T21:50:09.659Z,5.80
2019-05-28T21:52:38.953Z,7.08
2019-05-28T21:55:08.756Z,5.75
2019-05-28T21:57:38.105Z,5.40
2019-05-28T22:00:14.504Z,8.45
2019-05-28T22:02:45.679Z,5.85
2019-05-28T22:05:15.091Z,6.10
2019-05-28T22:07:45.935Z,6.97
2019-05-28T22:10:15.350Z,4.67
2019-05-28T22:12:47.243Z,8.48
2019-05-28T22:15:16.677Z,9.73
2019-05-28T22:17:45.977Z,7.10
2019-05-28T22:20:15.586Z,7.22
2019-05-28T22:22:46.475Z,6.35
2019-05-28T22:25:15.778Z,7.80
2019-05-28T22:27:45.072Z,7.90
2019-05-28T22:30:15.809Z,8.05
2019-05-28T22:32:45.261Z,9.70
2019-05-28T22:35:14.568Z,7.17
2019-05-28T22:37:43.872Z,8.83
2019-05-28T22:40:13.500Z,11.33
2019-05-28T22:42:42.867Z,11.68
2019-05-28T22:45:12.179Z,9.75
2019-05-28T22:47:41.521Z,10.10
2019-05-28T22:50:22.105Z,10.30
2019-05-28T22:52:42.170Z,7.37
2019-05-28T22:55:11.462Z,9.18
2019-05-28T22:57:40.742Z,11.97
2019-05-28T23:00:11.242Z,8.90
2019-05-28T23:02:40.585Z,9.90
2019-05-28T23:05:10.048Z,9.83
2019-05-28T23:07:39.312Z,15.32
2019-05-28T23:10:09.885Z,10.80
2019-05-28T23:12:39.299Z,12.98
2019-05-28T23:15:11.044Z,9.70
2019-05-28T23:17:40.331Z,10.75
2019-05-28T23:20:11.309Z,10.30
2019-05-28T23:22:40.685Z,9.50
2019-05-28T23:25:11.571Z,13.55
2019-05-28T23:27:41.165Z,10.30
2019-05-28T23:30:23.452Z,9.25
2019-05-28T23:32:43.873Z,13.00
2019-05-28T23:35:13.626Z,11.45
2019-05-28T23:37:42.992Z,12.60
2019-05-28T23:40:13.378Z,13.85
2019-05-28T23:42:43.486Z,12.03
2019-05-28T23:45:13.937Z,13.85
2019-05-28T23:47:44.081Z,12.40
2019-05-28T23:50:17.666Z,10.82
2019-05-28T23:52:45.300Z,17.57
2019-05-28T23:55:14.787Z,13.93
2019-05-28T23:57:44.106Z,16.37
